createdAt,value
2023-03-13T00:01:42.457Z,80.82
2023-03-13T00:04:09.344Z,80.91
2023-03-13T00:06:37.665Z,84.12
2023-03-13T00:09:06.628Z,81.85
2023-03-13T00:11:33.641Z,85.01
2023-03-13T00:14:03.378Z,81.05
2023-03-13T00:16:31.321Z,81.93
2023-03-13T00:18:58.574Z,82.12
2023-03-13T00:21:28.005Z,85.44
2023-03-13T00:23:55.340Z,83.03
2023-03-13T00:26:23.839Z,81.30
2023-03-13T00:28:51.501Z,83.01
2023-03-13T00:31:25.507Z,82.49
2023-03-13T00:33:55.771Z,84.77
2023-03-13T00:36:29.456Z,86.28
2023-03-13T00:38:57.357Z,88.99
2023-03-13T00:41:28.921Z,83.69
2023-03-13T00:43:56.153Z,84.34
2023-03-13T00:46:25.878Z,82.95
2023-03-13T00:48:53.028Z,86.15
2023-03-13T00:51:21.788Z,84.01
2023-03-13T00:53:49.101Z,84.75
2023-03-13T00:56:18.123Z,88.23
2023-03-13T00:58:45.562Z,85.70
2023-03-13T01:01:34.870Z,87.69
2023-03-13T01:04:05.110Z,85.83
2023-03-13T01:06:34.417Z,86.97
2023-03-13T01:09:02.009Z,85.44
2023-03-13T01:11:31.534Z,86.52
2023-03-13T01:14:00.957Z,86.26
2023-03-13T01:16:29.776Z,86.20
2023-03-13T01:19:00.409Z,86.17
2023-03-13T01:21:28.481Z,87.46
2023-03-13T01:23:55.392Z,86.95
2023-03-13T01:26:23.057Z,87.25
2023-03-13T01:28:50.180Z,87.64
2023-03-13T01:31:19.750Z,88.45
2023-03-13T01:33:48.038Z,88.66
2023-03-13T01:36:15.037Z,88.02
2023-03-13T01:38:41.691Z,88.43
2023-03-13T01:41:10.453Z,88.79
2023-03-13T01:43:37.498Z,89.63
2023-03-13T01:46:22.069Z,88.92
2023-03-13T01:48:52.986Z,89.73
2023-03-13T01:51:40.487Z,89.60
2023-03-13T01:54:15.724Z,90.01
2023-03-13T01:56:51.407Z,90.48
2023-03-13T01:59:23.985Z,90.17
2023-03-13T02:01:53.207Z,90.34
2023-03-13T02:04:22.091Z,90.39
2023-03-13T02:06:51.859Z,91.06
2023-03-13T02:09:23.304Z,91.30
2023-03-13T02:11:57.653Z,91.43
2023-03-13T02:14:28.406Z,91.05
2023-03-13T02:16:55.587Z,91.64
2023-03-13T02:19:35.796Z,92.49
2023-03-13T02:22:12.172Z,91.76
2023-03-13T02:24:52.858Z,91.98
2023-03-13T02:27:19.803Z,92.16
2023-03-13T02:29:47.055Z,92.21
2023-03-13T02:32:14.230Z,92.49
2023-03-13T02:34:43.473Z,92.69
2023-03-13T02:37:11.009Z,92.06
2023-03-13T02:39:41.955Z,92.89
2023-03-13T02:42:09.630Z,92.66
2023-03-13T02:44:40.780Z,92.34
2023-03-13T02:47:09.892Z,92.76
2023-03-13T02:49:36.939Z,93.08
2023-03-13T02:52:15.020Z,92.62
2023-03-13T02:54:44.917Z,93.28
2023-03-13T02:57:11.510Z,92.82
2023-03-13T02:59:38.104Z,93.75
2023-03-13T03:02:05.042Z,93.83
2023-03-13T03:04:31.849Z,93.44
2023-03-13T03:06:58.501Z,93.54
2023-03-13T03:09:25.737Z,93.68
2023-03-13T03:11:52.546Z,93.04
2023-03-13T03:14:19.332Z,92.94
2023-03-13T03:16:46.657Z,93.86
2023-03-13T03:19:13.438Z,94.47
2023-03-13T03:21:40.223Z,94.50
2023-03-13T03:24:07.144Z,93.87
2023-03-13T03:26:33.743Z,94.17
2023-03-13T03:29:00.285Z,94.07
2023-03-13T03:31:27.137Z,94.02
2023-03-13T03:33:53.771Z,94.34
2023-03-13T03:36:23.086Z,94.42
2023-03-13T03:38:50.242Z,94.60
2023-03-13T03:41:17.717Z,93.74
2023-03-13T03:43:44.445Z,93.86
2023-03-13T03:46:11.228Z,95.09
2023-03-13T03:48:38.050Z,94.37
2023-03-13T03:51:05.070Z,93.85
2023-03-13T03:53:32.530Z,94.10
2023-03-13T03:55:59.528Z,94.06
2023-03-13T03:58:26.097Z,93.99
2023-03-13T04:00:52.643Z,94.32
2023-03-13T04:03:19.294Z,93.84
2023-03-13T04:05:45.791Z,94.97
2023-03-13T04:08:12.294Z,94.16
2023-03-13T04:10:39.204Z,94.56
2023-03-13T04:13:05.851Z,94.80
2023-03-13T04:15:32.499Z,94.77
2023-03-13T04:17:59.231Z,94.52
2023-03-13T04:20:26.336Z,94.57
2023-03-13T04:22:52.842Z,94.58
2023-03-13T04:25:20.235Z,94.37
2023-03-13T04:27:46.854Z,94.30
2023-03-13T04:30:13.566Z,94.62
2023-03-13T04:32:40.339Z,94.49
2023-03-13T04:35:07.446Z,94.67
2023-03-13T04:37:33.956Z,94.57
2023-03-13T04:40:01.603Z,94.74
2023-03-13T04:42:28.608Z,94.71
2023-03-13T04:44:55.175Z,94.76
2023-03-13T04:47:21.740Z,94.31
2023-03-13T04:49:48.396Z,94.81
2023-03-13T04:52:15.305Z,95.23
2023-03-13T04:54:41.856Z,94.74
2023-03-13T04:57:08.469Z,94.60
2023-03-13T04:59:35.248Z,94.42
2023-03-13T05:02:01.853Z,94.35
2023-03-13T05:04:29.101Z,94.62
2023-03-13T05:06:55.787Z,94.23
2023-03-13T05:09:22.479Z,94.56
2023-03-13T05:11:50.472Z,94.32
2023-03-13T05:14:17.140Z,94.37
2023-03-13T05:16:43.627Z,94.16
2023-03-13T05:19:10.585Z,94.14
2023-03-13T05:21:37.300Z,94.26
2023-03-13T05:24:04.117Z,94.13
2023-03-13T05:26:30.751Z,94.05
2023-03-13T05:28:57.219Z,94.19
2023-03-13T05:31:23.866Z,94.01
2023-03-13T05:33:50.441Z,93.80
2023-03-13T05:36:16.923Z,93.56
2023-03-13T05:38:43.494Z,93.50
2023-03-13T05:41:10.040Z,93.37
2023-03-13T05:43:36.638Z,93.44
2023-03-13T05:46:03.167Z,93.29
2023-03-13T05:48:29.940Z,92.83
2023-03-13T05:50:56.520Z,91.99
2023-03-13T05:53:23.179Z,92.49
2023-03-13T05:55:49.880Z,92.01
2023-03-13T05:58:16.618Z,91.93
2023-03-13T06:00:43.833Z,91.57
2023-03-13T06:03:13.074Z,91.93
2023-03-13T06:05:41.035Z,91.36
2023-03-13T06:08:07.559Z,90.69
2023-03-13T06:10:34.110Z,91.35
2023-03-13T06:13:13.669Z,91.21
2023-03-13T06:15:52.290Z,90.40
2023-03-13T06:18:18.980Z,90.80
2023-03-13T06:20:45.690Z,90.71
2023-03-13T06:23:12.407Z,90.25
2023-03-13T06:25:39.091Z,90.98
2023-03-13T06:28:05.638Z,90.77
2023-03-13T06:30:32.231Z,90.33
2023-03-13T06:32:59.296Z,90.47
2023-03-13T06:35:26.161Z,90.37
2023-03-13T06:37:52.928Z,89.96
2023-03-13T06:40:19.505Z,90.51
2023-03-13T06:42:46.110Z,89.72
2023-03-13T06:45:12.558Z,89.48
2023-03-13T06:47:39.259Z,90.11
2023-03-13T06:50:06.259Z,89.66
2023-03-13T06:52:43.111Z,88.95
2023-03-13T06:55:11.090Z,89.51
2023-03-13T06:57:37.604Z,89.31
2023-03-13T07:00:06.143Z,89.73
2023-03-13T07:02:32.912Z,89.39
2023-03-13T07:04:59.787Z,89.47
2023-03-13T07:07:31.919Z,88.71
2023-03-13T07:09:59.222Z,88.50
2023-03-13T07:12:26.309Z,88.36
2023-03-13T07:14:52.874Z,88.59
2023-03-13T07:17:19.457Z,88.79
2023-03-13T07:19:46.860Z,88.26
2023-03-13T07:22:13.563Z,88.71
2023-03-13T07:24:40.517Z,89.14
2023-03-13T07:27:08.206Z,89.23
2023-03-13T07:29:34.969Z,89.10
2023-03-13T07:32:01.557Z,89.68
2023-03-13T07:34:28.585Z,90.08
2023-03-13T07:36:55.078Z,90.51
2023-03-13T07:39:21.687Z,90.77
2023-03-13T07:41:48.280Z,91.04
2023-03-13T07:44:14.941Z,91.33
2023-03-13T07:46:41.557Z,91.26
2023-03-13T07:49:08.688Z,92.14
2023-03-13T07:51:43.497Z,92.21
2023-03-13T07:54:11.800Z,91.78
2023-03-13T07:56:38.705Z,92.50
2023-03-13T07:59:05.544Z,92.67
2023-03-13T08:01:32.357Z,92.38
2023-03-13T08:04:01.970Z,92.80
2023-03-13T08:06:33.432Z,91.83
2023-03-13T08:09:00.651Z,93.14
2023-03-13T08:11:28.896Z,93.06
2023-03-13T08:13:57.060Z,91.06
2023-03-13T08:16:27.569Z,91.63
2023-03-13T08:18:56.092Z,91.60
2023-03-13T08:21:26.962Z,92.28
2023-03-13T08:23:55.586Z,92.31
2023-03-13T08:26:23.691Z,92.71
2023-03-13T08:28:55.317Z,92.54
2023-03-13T08:31:27.247Z,92.73
2023-03-13T08:33:54.222Z,92.49
2023-03-13T08:36:25.263Z,93.14
2023-03-13T08:38:58.331Z,93.56
2023-03-13T08:41:28.620Z,92.65
2023-03-13T08:43:56.802Z,92.65
2023-03-13T08:46:24.575Z,91.88
2023-03-13T08:48:52.733Z,92.23
2023-03-13T08:51:21.521Z,92.26
2023-03-13T08:53:48.289Z,91.72
2023-03-13T08:56:17.778Z,91.14
2023-03-13T08:58:53.700Z,90.71
2023-03-13T09:01:22.591Z,90.52
2023-03-13T09:03:49.849Z,90.95
2023-03-13T09:06:16.938Z,90.48
2023-03-13T09:08:44.539Z,91.64
2023-03-13T09:11:16.503Z,91.12
2023-03-13T09:13:44.972Z,90.41
2023-03-13T09:16:13.805Z,90.03
2023-03-13T09:18:40.718Z,90.41
2023-03-13T09:21:14.180Z,88.72
2023-03-13T09:23:40.893Z,88.30
2023-03-13T09:26:07.607Z,89.55
2023-03-13T09:28:35.023Z,88.68
2023-03-13T09:31:26.045Z,87.37
2023-03-13T09:33:53.316Z,88.97
2023-03-13T09:36:22.536Z,87.65
2023-03-13T09:38:51.186Z,87.90
2023-03-13T09:41:27.341Z,85.57
2023-03-13T09:44:00.499Z,85.08
2023-03-13T09:46:49.750Z,85.14
2023-03-13T09:49:38.053Z,85.42
2023-03-13T09:52:25.838Z,83.54
2023-03-13T09:55:00.015Z,84.10
2023-03-13T09:57:40.900Z,82.92
2023-03-13T10:00:13.802Z,80.31
2023-03-13T10:02:46.142Z,82.43
2023-03-13T10:05:19.178Z,83.22
2023-03-13T10:07:45.762Z,82.85
2023-03-13T10:10:21.998Z,80.04
2023-03-13T10:12:56.412Z,81.10
2023-03-13T10:15:45.101Z,78.06
2023-03-13T10:18:26.458Z,78.62
2023-03-13T10:21:02.242Z,78.96
2023-03-13T10:23:37.862Z,78.54
2023-03-13T10:26:04.727Z,77.84
2023-03-13T10:28:31.349Z,72.54
2023-03-13T10:31:05.923Z,75.82
2023-03-13T10:33:34.622Z,75.70
2023-03-13T10:36:13.235Z,74.45
2023-03-13T10:38:52.718Z,73.65
2023-03-13T10:41:28.544Z,74.97
2023-03-13T10:44:00.309Z,72.99
2023-03-13T10:46:29.734Z,73.91
2023-03-13T10:48:57.969Z,74.42
2023-03-13T10:51:38.050Z,72.28
2023-03-13T10:54:21.963Z,71.98
2023-03-13T10:56:50.531Z,71.64
2023-03-13T10:59:42.755Z,71.88
2023-03-13T11:02:28.632Z,71.59
2023-03-13T11:04:56.376Z,70.29
2023-03-13T11:07:36.228Z,71.35
2023-03-13T11:10:25.014Z,70.45
2023-03-13T11:12:55.644Z,66.21
2023-03-13T11:15:29.563Z,67.17
2023-03-13T11:18:12.188Z,65.68
2023-03-13T11:20:45.037Z,62.61
2023-03-13T11:23:28.346Z,64.67
2023-03-13T11:26:19.615Z,65.79
2023-03-13T11:29:06.367Z,64.16
2023-03-13T11:31:47.637Z,64.45
2023-03-13T11:34:26.713Z,63.11
2023-03-13T11:37:12.952Z,63.82
2023-03-13T11:39:55.605Z,60.74
2023-03-13T11:42:50.616Z,61.49
2023-03-13T11:45:41.918Z,62.10
2023-03-13T11:48:29.286Z,63.07
2023-03-13T11:51:27.022Z,62.74
2023-03-13T11:54:06.215Z,63.29
2023-03-13T11:56:44.795Z,59.76
2023-03-13T11:59:42.166Z,62.71
2023-03-13T12:02:36.449Z,61.37
2023-03-13T12:05:10.627Z,60.84
2023-03-13T12:07:47.144Z,61.06
2023-03-13T12:10:22.230Z,61.08
2023-03-13T12:13:18.829Z,62.22
2023-03-13T12:15:51.651Z,59.06
2023-03-13T12:18:24.355Z,59.29
2023-03-13T12:21:01.997Z,56.25
2023-03-13T12:23:42.378Z,58.60
2023-03-13T12:26:12.942Z,58.61
2023-03-13T12:28:46.102Z,55.74
2023-03-13T12:31:29.313Z,57.13
2023-03-13T12:34:22.877Z,57.08
2023-03-13T12:37:08.466Z,56.22
2023-03-13T12:39:41.501Z,55.59
2023-03-13T12:42:36.676Z,53.58
2023-03-13T12:45:05.419Z,53.57
2023-03-13T12:47:34.001Z,53.79
2023-03-13T12:50:25.561Z,52.79
2023-03-13T12:53:08.610Z,52.84
2023-03-13T12:56:00.545Z,54.03
2023-03-13T12:58:58.218Z,53.49
2023-03-13T13:01:52.394Z,53.64
2023-03-13T13:04:30.402Z,54.05
2023-03-13T13:07:03.371Z,54.74
2023-03-13T13:09:39.377Z,52.86
2023-03-13T13:12:20.521Z,55.14
2023-03-13T13:14:56.198Z,55.21
2023-03-13T13:17:30.416Z,55.03
2023-03-13T13:19:58.014Z,55.13
2023-03-13T13:22:36.883Z,55.30
2023-03-13T13:25:30.055Z,55.79
2023-03-13T13:27:59.024Z,56.95
2023-03-13T13:30:31.769Z,56.18
2023-03-13T13:33:28.250Z,54.98
2023-03-13T13:36:23.151Z,56.58
2023-03-13T13:38:50.105Z,57.07
2023-03-13T13:41:23.591Z,56.64
2023-03-13T13:44:22.898Z,55.21
2023-03-13T13:46:49.792Z,54.14
2023-03-13T13:49:21.604Z,53.76
2023-03-13T13:52:25.531Z,53.26
2023-03-13T13:54:57.293Z,52.93
2023-03-13T13:57:29.836Z,53.05
2023-03-13T14:00:15.815Z,51.39
2023-03-13T14:02:56.880Z,51.68
2023-03-13T14:05:30.470Z,51.94
2023-03-13T14:08:20.994Z,52.13
2023-03-13T14:10:55.212Z,52.94
2023-03-13T14:13:23.084Z,51.76
2023-03-13T14:15:53.125Z,52.22
2023-03-13T14:18:30.085Z,52.90
2023-03-13T14:21:05.353Z,50.71
2023-03-13T14:23:43.634Z,52.32
2023-03-13T14:26:14.921Z,52.49
2023-03-13T14:28:43.729Z,52.30
2023-03-13T14:31:12.257Z,51.97
2023-03-13T14:33:39.102Z,51.88
2023-03-13T14:36:05.969Z,51.73
2023-03-13T14:38:35.429Z,51.53
2023-03-13T14:41:02.110Z,52.19
2023-03-13T14:43:42.518Z,52.61
2023-03-13T14:46:22.904Z,51.99
2023-03-13T14:48:49.611Z,51.96
2023-03-13T14:51:22.782Z,52.23
2023-03-13T14:54:01.644Z,51.95
2023-03-13T14:56:34.631Z,50.89
2023-03-13T14:59:26.004Z,50.92
2023-03-13T15:02:02.683Z,51.27
2023-03-13T15:04:59.626Z,51.40
2023-03-13T15:07:40.824Z,51.16
2023-03-13T15:10:22.005Z,51.04
2023-03-13T15:12:49.514Z,51.43
2023-03-13T15:15:16.299Z,51.34
2023-03-13T15:17:43.392Z,50.54
2023-03-13T15:20:23.880Z,51.46
2023-03-13T15:22:50.477Z,51.52
2023-03-13T15:25:20.478Z,51.75
2023-03-13T15:27:47.887Z,51.12
2023-03-13T15:30:19.446Z,51.72
2023-03-13T15:32:47.262Z,51.52
2023-03-13T15:35:30.213Z,51.96
2023-03-13T15:37:58.846Z,52.53
2023-03-13T15:40:26.064Z,51.99
2023-03-13T15:42:55.463Z,52.14
2023-03-13T15:45:22.722Z,52.31
2023-03-13T15:47:50.174Z,53.02
2023-03-13T15:50:19.447Z,52.87
2023-03-13T15:52:46.986Z,52.93
2023-03-13T15:55:14.504Z,52.77
2023-03-13T15:57:50.211Z,53.10
2023-03-13T16:00:26.230Z,52.83
2023-03-13T16:02:53.051Z,53.16
2023-03-13T16:05:19.776Z,52.74
2023-03-13T16:07:46.324Z,52.93
2023-03-13T16:10:18.102Z,52.97
2023-03-13T16:12:44.886Z,52.95
2023-03-13T16:15:11.536Z,53.06
2023-03-13T16:17:38.182Z,52.92
2023-03-13T16:20:11.817Z,52.99
2023-03-13T16:22:38.424Z,53.09
2023-03-13T16:25:05.501Z,53.26
2023-03-13T16:27:32.039Z,53.07
2023-03-13T16:29:58.747Z,53.16
2023-03-13T16:32:26.096Z,53.65
2023-03-13T16:34:52.673Z,52.93
2023-03-13T16:37:21.114Z,53.45
2023-03-13T16:39:48.442Z,53.73
2023-03-13T16:42:15.040Z,53.75
2023-03-13T16:44:41.763Z,53.80
2023-03-13T16:47:28.791Z,54.07
2023-03-13T16:49:55.738Z,54.11
2023-03-13T16:52:22.434Z,54.56
2023-03-13T16:54:49.376Z,54.66
2023-03-13T16:57:19.785Z,54.66
2023-03-13T16:59:46.439Z,54.78
2023-03-13T17:02:18.434Z,54.52
2023-03-13T17:04:47.734Z,54.69
2023-03-13T17:07:23.372Z,54.94
2023-03-13T17:09:51.709Z,54.86
2023-03-13T17:12:19.486Z,55.04
2023-03-13T17:14:47.173Z,55.31
2023-03-13T17:17:17.722Z,55.14
2023-03-13T17:19:45.148Z,55.48
2023-03-13T17:22:17.681Z,55.91
2023-03-13T17:24:44.618Z,55.69
2023-03-13T17:27:16.194Z,55.93
2023-03-13T17:29:43.865Z,56.03
2023-03-13T17:32:12.063Z,56.16
2023-03-13T17:34:39.373Z,56.00
2023-03-13T17:37:14.782Z,56.44
2023-03-13T17:39:41.414Z,56.73
2023-03-13T17:42:08.328Z,56.81
2023-03-13T17:44:35.346Z,56.73
2023-03-13T17:47:02.027Z,57.10
2023-03-13T17:49:31.083Z,57.54
2023-03-13T17:51:57.674Z,57.44
2023-03-13T17:54:24.278Z,57.42
2023-03-13T17:56:50.847Z,57.69
2023-03-13T17:59:18.572Z,57.97
2023-03-13T18:01:45.624Z,58.17
2023-03-13T18:04:13.016Z,58.24
2023-03-13T18:06:42.982Z,58.70
2023-03-13T18:09:20.818Z,58.77
2023-03-13T18:11:48.494Z,58.86
2023-03-13T18:14:15.216Z,58.56
2023-03-13T18:16:48.153Z,59.02
2023-03-13T18:19:23.876Z,58.96
2023-03-13T18:21:52.604Z,59.40
2023-03-13T18:24:19.534Z,59.18
2023-03-13T18:26:48.293Z,59.65
2023-03-13T18:29:26.384Z,59.60
2023-03-13T18:31:55.212Z,59.40
2023-03-13T18:34:23.376Z,59.58
2023-03-13T18:36:50.314Z,59.65
2023-03-13T18:39:17.917Z,60.04
2023-03-13T18:41:45.467Z,60.39
2023-03-13T18:44:16.228Z,60.11
2023-03-13T18:46:43.805Z,60.81
2023-03-13T18:49:17.279Z,60.42
2023-03-13T18:51:44.687Z,61.19
2023-03-13T18:54:11.332Z,60.98
2023-03-13T18:56:38.632Z,61.03
2023-03-13T18:59:06.864Z,60.97
2023-03-13T19:01:33.493Z,61.23
2023-03-13T19:04:01.084Z,61.03
2023-03-13T19:06:33.452Z,61.69
2023-03-13T19:09:02.579Z,61.79
2023-03-13T19:11:32.101Z,62.20
2023-03-13T19:13:59.413Z,62.36
2023-03-13T19:16:30.447Z,62.32
2023-03-13T19:18:58.231Z,62.78
2023-03-13T19:21:28.358Z,62.33
2023-03-13T19:23:55.993Z,62.76
2023-03-13T19:26:26.118Z,62.86
2023-03-13T19:28:52.798Z,62.71
2023-03-13T19:31:19.353Z,62.82
2023-03-13T19:33:47.516Z,62.60
2023-03-13T19:36:16.313Z,62.40
2023-03-13T19:38:43.802Z,63.61
2023-03-13T19:41:11.257Z,62.95
2023-03-13T19:43:39.016Z,63.40
2023-03-13T19:46:28.884Z,63.52
2023-03-13T19:48:58.232Z,63.47
2023-03-13T19:51:26.748Z,63.76
2023-03-13T19:53:54.189Z,63.85
2023-03-13T19:56:29.717Z,64.03
2023-03-13T19:59:05.212Z,63.47
2023-03-13T20:01:32.735Z,63.68
2023-03-13T20:03:59.707Z,64.02
2023-03-13T20:06:30.545Z,63.91
2023-03-13T20:09:00.390Z,64.60
2023-03-13T20:11:28.334Z,64.59
2023-03-13T20:13:56.202Z,64.97
2023-03-13T20:16:25.639Z,64.84
2023-03-13T20:18:52.560Z,64.30
2023-03-13T20:21:19.148Z,65.29
2023-03-13T20:23:47.886Z,64.96
2023-03-13T20:26:16.506Z,65.16
2023-03-13T20:28:46.308Z,65.03
2023-03-13T20:31:14.032Z,65.59
2023-03-13T20:33:40.969Z,64.79
2023-03-13T20:36:11.716Z,65.95
2023-03-13T20:38:39.594Z,65.38
2023-03-13T20:41:07.033Z,65.34
2023-03-13T20:43:34.950Z,66.12
2023-03-13T20:46:02.298Z,65.94
2023-03-13T20:48:29.320Z,66.09
2023-03-13T20:50:58.318Z,65.79
2023-03-13T20:53:25.709Z,66.28
2023-03-13T20:55:54.423Z,66.32
2023-03-13T20:58:21.068Z,65.92
2023-03-13T21:00:48.755Z,66.10
2023-03-13T21:03:17.262Z,66.58
2023-03-13T21:05:44.484Z,66.26
2023-03-13T21:08:10.989Z,65.97
2023-03-13T21:10:39.354Z,65.20
2023-03-13T21:13:06.391Z,64.62
2023-03-13T21:15:33.666Z,64.35
2023-03-13T21:18:00.612Z,63.93
2023-03-13T21:20:28.724Z,64.22
2023-03-13T21:22:55.457Z,63.77
2023-03-13T21:25:22.841Z,64.86
2023-03-13T21:27:49.527Z,65.17
2023-03-13T21:30:19.650Z,64.86
2023-03-13T21:32:47.187Z,65.60
2023-03-13T21:35:15.242Z,64.79
2023-03-13T21:37:42.907Z,64.72
2023-03-13T21:40:10.332Z,64.90
2023-03-13T21:42:37.633Z,64.96
2023-03-13T21:45:06.541Z,65.66
2023-03-13T21:47:36.936Z,65.10
2023-03-13T21:50:06.400Z,65.17
2023-03-13T21:52:38.328Z,65.34
2023-03-13T21:55:10.319Z,65.64
2023-03-13T21:57:36.972Z,64.53
2023-03-13T22:00:07.901Z,64.76
2023-03-13T22:02:36.668Z,65.85
2023-03-13T22:05:04.761Z,65.89
2023-03-13T22:07:31.467Z,65.73
2023-03-13T22:09:58.460Z,66.41
2023-03-13T22:12:25.784Z,67.05
2023-03-13T22:14:53.251Z,65.73
2023-03-13T22:17:20.374Z,65.03
2023-03-13T22:19:47.556Z,65.60
2023-03-13T22:22:14.764Z,65.49
2023-03-13T22:24:42.274Z,65.62
2023-03-13T22:27:12.773Z,65.80
2023-03-13T22:29:39.548Z,65.20
2023-03-13T22:32:06.116Z,64.52
2023-03-13T22:34:32.980Z,65.55
2023-03-13T22:36:59.528Z,65.36
2023-03-13T22:39:26.015Z,65.55
2023-03-13T22:41:52.563Z,67.07
2023-03-13T22:44:19.095Z,66.02
2023-03-13T22:46:45.589Z,65.56
2023-03-13T22:49:12.117Z,65.03
2023-03-13T22:51:38.664Z,65.31
2023-03-13T22:54:05.238Z,65.49
2023-03-13T22:56:31.778Z,65.54
2023-03-13T22:59:00.925Z,65.03
2023-03-13T23:01:27.561Z,65.29
2023-03-13T23:03:54.142Z,66.13
2023-03-13T23:06:23.531Z,64.79
2023-03-13T23:08:50.719Z,65.39
2023-03-13T23:11:18.676Z,65.93
2023-03-13T23:13:45.353Z,66.06
2023-03-13T23:16:12.895Z,66.40
2023-03-13T23:18:40.383Z,66.64
2023-03-13T23:21:09.507Z,66.32
2023-03-13T23:23:36.436Z,67.09
2023-03-13T23:26:05.136Z,66.99
2023-03-13T23:28:31.774Z,66.71
2023-03-13T23:30:58.492Z,66.67
2023-03-13T23:33:25.083Z,66.91
2023-03-13T23:35:51.564Z,69.01
2023-03-13T23:38:20.676Z,71.16
2023-03-13T23:40:47.378Z,73.53
2023-03-13T23:43:13.847Z,72.65
2023-03-13T23:45:40.437Z,73.30
2023-03-13T23:48:06.917Z,73.54
2023-03-13T23:50:33.530Z,72.19
2023-03-13T23:53:00.045Z,72.74
2023-03-13T23:55:26.668Z,71.49
2023-03-13T23:57:53.590Z,72.31
